Time;durP1;ratioP1;P1;durP2;ratioP2;P2;SDS_P1;SDS_P2;PMS_P1;PMS_P2;Temp;Humidity;BMP_temperature;BMP_pressure;BME280_temperature;BME280_humidity;BME280_pressure;Samples;Min_cycle;Max_cycle;Signal;HPM_P1;HPM_P2
2022/05/02 00:02:25;;;;;;;8.53;7.67;;;;;;;;;;5044423;28;20478;-76
2022/05/02 00:04:52;;;;;;;9.63;7.80;;;;;;;;;;5034345;28;20453;-74
2022/05/02 00:07:19;;;;;;;9.77;8.23;;;;;;;;;;5035066;28;20471;-75
2022/05/02 00:09:46;;;;;;;11.00;8.70;;;;;;;;;;5038243;28;20439;-75
2022/05/02 00:12:14;;;;;;;10.37;8.10;;;;;;;;;;5040780;28;20480;-75
2022/05/02 00:14:42;;;;;;;10.30;8.27;;;;;;;;;;5051780;28;20448;-76
2022/05/02 00:17:09;;;;;;;9.53;7.77;;;;;;;;;;5051568;28;20456;-75
2022/05/02 00:19:37;;;;;;;10.83;9.10;;;;;;;;;;5051778;28;20452;-75
2022/05/02 00:22:04;;;;;;;9.67;8.10;;;;;;;;;;5052361;28;20471;-75
2022/05/02 00:24:32;;;;;;;9.03;7.90;;;;;;;;;;5044956;28;20545;-75
2022/05/02 00:26:59;;;;;;;9.53;8.50;;;;;;;;;;5034065;28;20450;-74
2022/05/02 00:29:26;;;;;;;8.47;7.47;;;;;;;;;;5034148;28;20445;-75
2022/05/02 00:31:55;;;;;;;8.17;7.03;;;;;;;;;;5037238;28;20477;-75
2022/05/02 00:34:22;;;;;;;11.30;7.77;;;;;;;;;;5037331;28;20426;-76
2022/05/02 00:36:49;;;;;;;8.80;7.20;;;;;;;;;;5031158;28;20446;-75
2022/05/02 00:39:16;;;;;;;7.37;6.57;;;;;;;;;;5031500;28;20453;-75
2022/05/02 00:41:44;;;;;;;7.70;6.90;;;;;;;;;;5031940;28;20472;-74
2022/05/02 00:44:11;;;;;;;11.13;7.47;;;;;;;;;;5032052;28;20469;-76
2022/05/02 00:46:38;;;;;;;9.40;7.27;;;;;;;;;;5031903;28;20450;-75
2022/05/02 00:49:07;;;;;;;8.37;7.40;;;;;;;;;;5033832;28;20438;-76
2022/05/02 00:51:34;;;;;;;8.90;8.00;;;;;;;;;;5033848;28;20482;-75
2022/05/02 00:54:01;;;;;;;9.07;8.17;;;;;;;;;;5037411;28;20433;-75
2022/05/02 00:56:28;;;;;;;10.67;8.73;;;;;;;;;;5036939;28;20447;-76
2022/05/02 00:58:55;;;;;;;8.80;6.57;;;;;;;;;;5030699;28;20434;-76
2022/05/02 01:01:23;;;;;;;10.43;8.00;;;;;;;;;;5031291;28;20474;-75
2022/05/02 01:03:51;;;;;;;9.73;8.80;;;;;;;;;;5031630;28;20449;-74
2022/05/02 01:09:00;;;;;;;9.87;7.53;;;;;;;;;;5015401;28;20458;-75
2022/05/02 01:11:28;;;;;;;8.83;7.90;;;;;;;;;;5033271;28;20488;-75
2022/05/02 01:13:55;;;;;;;9.17;8.27;;;;;;;;;;5034044;28;20438;-75
2022/05/02 01:16:23;;;;;;;9.23;8.27;;;;;;;;;;5037155;28;20524;-74
2022/05/02 01:18:51;;;;;;;9.10;6.87;;;;;;;;;;5023030;28;20444;-76
2022/05/02 01:21:21;;;;;;;7.23;6.60;;;;;;;;;;5032894;28;20544;-74
2022/05/02 01:23:49;;;;;;;9.00;7.40;;;;;;;;;;5033108;28;20429;-75
2022/05/02 01:26:16;;;;;;;8.93;7.83;;;;;;;;;;5051181;28;20944;-75
2022/05/02 01:28:45;;;;;;;8.77;7.50;;;;;;;;;;5051397;28;20448;-75
2022/05/02 01:31:13;;;;;;;11.07;8.63;;;;;;;;;;5042846;28;20594;-75
2022/05/02 01:33:41;;;;;;;8.63;7.80;;;;;;;;;;5035816;28;20859;-75
2022/05/02 01:36:09;;;;;;;8.00;7.30;;;;;;;;;;5019101;28;20437;-76
2022/05/02 01:38:37;;;;;;;9.10;7.90;;;;;;;;;;5039459;28;20433;-75
2022/05/02 01:41:04;;;;;;;10.27;8.03;;;;;;;;;;5020672;28;20815;-76
2022/05/02 01:43:32;;;;;;;9.80;8.80;;;;;;;;;;5033325;28;20464;-75
2022/05/02 01:45:59;;;;;;;10.37;8.30;;;;;;;;;;5033554;28;20985;-74
2022/05/02 01:48:26;;;;;;;9.07;8.13;;;;;;;;;;5033912;28;20434;-74
2022/05/02 01:50:53;;;;;;;8.40;7.47;;;;;;;;;;5033649;28;20462;-75
2022/05/02 01:53:21;;;;;;;9.13;8.23;;;;;;;;;;5034088;28;20961;-74
2022/05/02 01:55:49;;;;;;;8.70;7.80;;;;;;;;;;5018318;28;20434;-75
2022/05/02 01:58:16;;;;;;;10.43;8.43;;;;;;;;;;5036077;28;20954;-75
2022/05/02 02:00:44;;;;;;;9.30;8.00;;;;;;;;;;5039046;28;20456;-76
2022/05/02 02:03:11;;;;;;;10.80;7.97;;;;;;;;;;5041945;28;20922;-75
2022/05/02 02:08:20;;;;;;;9.50;8.50;;;;;;;;;;5037198;28;20491;-75
2022/05/02 02:10:48;;;;;;;9.60;8.60;;;;;;;;;;5035575;28;20464;-75
2022/05/02 02:13:17;;;;;;;12.33;8.43;;;;;;;;;;5053561;28;20492;-75
2022/05/02 02:15:44;;;;;;;9.83;8.83;;;;;;;;;;5026951;28;20438;-75
2022/05/02 02:18:11;;;;;;;9.40;8.27;;;;;;;;;;5017699;28;20442;-75
2022/05/02 02:20:39;;;;;;;8.70;7.80;;;;;;;;;;5018328;28;20453;-76
2022/05/02 02:23:06;;;;;;;9.93;8.83;;;;;;;;;;5038761;28;20441;-74
2022/05/02 02:25:33;;;;;;;9.53;8.50;;;;;;;;;;5042304;28;20433;-75
2022/05/02 02:28:01;;;;;;;12.67;9.30;;;;;;;;;;5052398;28;20445;-75
2022/05/02 02:30:30;;;;;;;10.50;8.57;;;;;;;;;;5034885;28;20578;-75
2022/05/02 02:32:57;;;;;;;9.13;8.20;;;;;;;;;;5014520;28;1124583;-75
2022/05/02 02:35:25;;;;;;;8.63;7.73;;;;;;;;;;5054480;28;20195;-76
2022/05/02 02:37:52;;;;;;;9.67;8.67;;;;;;;;;;5046122;28;20833;-75
2022/05/02 02:40:20;;;;;;;8.07;7.27;;;;;;;;;;5036075;28;20438;-75
2022/05/02 02:42:47;;;;;;;8.80;8.00;;;;;;;;;;5035980;28;20450;-74
2022/05/02 02:45:14;;;;;;;9.50;7.93;;;;;;;;;;5039489;28;20801;-75
2022/05/02 02:47:43;;;;;;;8.47;7.67;;;;;;;;;;5042769;28;20773;-75
2022/05/02 02:50:10;;;;;;;9.70;8.67;;;;;;;;;;5052874;28;21053;-74
2022/05/02 02:52:38;;;;;;;9.43;8.20;;;;;;;;;;5035790;28;20484;-75
2022/05/02 02:55:05;;;;;;;12.83;9.50;;;;;;;;;;5053874;28;20448;-75
2022/05/02 02:57:33;;;;;;;11.60;8.80;;;;;;;;;;5053859;28;20441;-74
2022/05/02 03:00:01;;;;;;;10.57;8.93;;;;;;;;;;5046577;28;20449;-75
2022/05/02 03:02:28;;;;;;;8.73;7.83;;;;;;;;;;5035779;28;20466;-77
2022/05/02 03:07:37;;;;;;;14.10;11.00;;;;;;;;;;5038426;28;21733;-77
2022/05/02 03:10:05;;;;;;;11.37;10.13;;;;;;;;;;5025062;28;20445;-75
2022/05/02 03:12:32;;;;;;;11.23;9.90;;;;;;;;;;5052616;28;20495;-75
2022/05/02 03:15:00;;;;;;;10.07;8.63;;;;;;;;;;5052987;28;20444;-76
2022/05/02 03:17:27;;;;;;;11.40;9.53;;;;;;;;;;5053457;28;20533;-74
2022/05/02 03:19:54;;;;;;;10.70;9.50;;;;;;;;;;5053722;28;20433;-75
2022/05/02 03:22:22;;;;;;;10.40;9.30;;;;;;;;;;5045578;28;20484;-77
2022/05/02 03:24:49;;;;;;;10.20;9.00;;;;;;;;;;5035014;28;20438;-75
2022/05/02 03:27:17;;;;;;;15.00;9.90;;;;;;;;;;5035673;28;20448;-74
2022/05/02 03:29:44;;;;;;;10.20;8.47;;;;;;;;;;5038834;28;20437;-76
2022/05/02 03:32:11;;;;;;;10.90;9.30;;;;;;;;;;5041493;28;20839;-74
2022/05/02 03:34:38;;;;;;;9.97;8.97;;;;;;;;;;5052071;28;20449;-76
2022/05/02 03:37:06;;;;;;;12.67;11.37;;;;;;;;;;5052469;28;20445;-75
2022/05/02 03:39:34;;;;;;;11.23;9.83;;;;;;;;;;5053124;28;21045;-76
2022/05/02 03:42:01;;;;;;;13.50;10.00;;;;;;;;;;5053159;28;20462;-74
2022/05/02 03:44:28;;;;;;;12.07;10.77;;;;;;;;;;5046076;28;20452;-76
2022/05/02 03:46:56;;;;;;;11.70;10.50;;;;;;;;;;5035222;28;20448;-75
2022/05/02 03:49:23;;;;;;;11.80;10.60;;;;;;;;;;5035041;28;20454;-76
2022/05/02 03:51:50;;;;;;;12.20;10.87;;;;;;;;;;5037862;28;20500;-75
2022/05/02 03:54:17;;;;;;;12.57;10.07;;;;;;;;;;5040073;28;20431;-75
2022/05/02 03:56:45;;;;;;;10.70;9.33;;;;;;;;;;5051641;28;20445;-75
2022/05/02 03:59:13;;;;;;;11.73;9.50;;;;;;;;;;5052400;28;21005;-75
2022/05/02 04:01:41;;;;;;;9.87;8.83;;;;;;;;;;5052574;28;20453;-77
2022/05/02 04:04:08;;;;;;;10.57;8.87;;;;;;;;;;5052666;28;20953;-75
2022/05/02 04:06:36;;;;;;;10.57;9.50;;;;;;;;;;5046165;28;20473;-75
2022/05/02 04:09:03;;;;;;;11.80;9.47;;;;;;;;;;5034811;28;20947;-75
2022/05/02 04:11:30;;;;;;;10.40;9.07;;;;;;;;;;5034418;28;20924;-75
2022/05/02 04:13:59;;;;;;;11.67;10.43;;;;;;;;;;5038373;28;20485;-74
2022/05/02 04:16:26;;;;;;;10.67;9.57;;;;;;;;;;5038221;28;20430;-74
2022/05/02 04:18:53;;;;;;;12.27;10.93;;;;;;;;;;5031323;28;20446;-76
2022/05/02 04:21:21;;;;;;;11.63;9.90;;;;;;;;;;5032067;28;20458;-76
2022/05/02 04:23:48;;;;;;;11.33;10.03;;;;;;;;;;5032070;28;20450;-76
2022/05/02 04:26:15;;;;;;;14.30;10.43;;;;;;;;;;5032582;28;20448;-74
2022/05/02 04:28:42;;;;;;;10.27;9.20;;;;;;;;;;5032186;28;20908;-76
2022/05/02 04:31:11;;;;;;;12.73;10.47;;;;;;;;;;5033735;28;20465;-76
2022/05/02 04:33:39;;;;;;;12.47;9.93;;;;;;;;;;5033917;28;20485;-76
2022/05/02 04:36:07;;;;;;;12.70;9.90;;;;;;;;;;5037611;28;20449;-77
2022/05/02 04:38:34;;;;;;;12.10;10.80;;;;;;;;;;5037826;28;20466;-75
2022/05/02 04:41:01;;;;;;;12.87;10.30;;;;;;;;;;5051469;28;20457;-74
2022/05/02 04:43:28;;;;;;;11.63;10.43;;;;;;;;;;5051375;28;20448;-75
2022/05/02 04:45:55;;;;;;;12.07;10.73;;;;;;;;;;5051514;28;20467;-75
2022/05/02 04:48:24;;;;;;;12.27;10.30;;;;;;;;;;5052351;28;20445;-76
2022/05/02 04:50:51;;;;;;;12.63;9.97;;;;;;;;;;5048149;28;20477;-76
2022/05/02 04:53:18;;;;;;;18.50;10.07;;;;;;;;;;5033804;28;20521;-75
2022/05/02 04:55:45;;;;;;;13.00;10.10;;;;;;;;;;5033577;28;20457;-74
2022/05/02 04:58:12;;;;;;;12.73;9.57;;;;;;;;;;5036905;28;20441;-76
2022/05/02 05:00:40;;;;;;;14.53;10.77;;;;;;;;;;5037270;28;20461;-75
2022/05/02 05:03:07;;;;;;;12.17;10.50;;;;;;;;;;5050415;28;20452;-74
2022/05/02 05:05:36;;;;;;;13.20;10.93;;;;;;;;;;5051067;28;20433;-75
2022/05/02 05:08:03;;;;;;;12.73;11.37;;;;;;;;;;5051308;28;20459;-75
2022/05/02 05:10:30;;;;;;;12.80;10.80;;;;;;;;;;5051897;28;20472;-76
2022/05/02 05:13:04;;;;;;;12.50;10.80;;;;;;;;;;5048073;28;20489;-77
2022/05/02 05:18:28;;;;;;;11.77;10.57;;;;;;;;;;5017929;28;20971;-75
2022/05/02 05:20:59;;;;;;;12.63;10.83;;;;;;;;;;5037144;28;20455;-75
2022/05/02 05:23:35;;;;;;;12.73;10.73;;;;;;;;;;5036271;28;20434;-75
2022/05/02 05:26:08;;;;;;;13.63;11.37;;;;;;;;;;5029453;28;20470;-75
2022/05/02 05:28:43;;;;;;;11.97;10.50;;;;;;;;;;5030451;28;20446;-76
2022/05/02 05:31:17;;;;;;;13.10;11.80;;;;;;;;;;5030782;28;20827;-76
2022/05/02 05:33:50;;;;;;;13.80;11.70;;;;;;;;;;5027698;28;20481;-75
2022/05/02 05:36:23;;;;;;;15.53;11.73;;;;;;;;;;5029583;28;20453;-73
2022/05/02 05:38:55;;;;;;;13.40;11.33;;;;;;;;;;5035423;28;20426;-75
2022/05/02 05:41:30;;;;;;;12.93;11.40;;;;;;;;;;5034836;28;20488;-75
2022/05/02 05:43:59;;;;;;;11.93;10.03;;;;;;;;;;5030329;28;20450;-75
2022/05/02 05:46:34;;;;;;;18.07;11.60;;;;;;;;;;5030644;28;20473;-74
2022/05/02 05:49:04;;;;;;;13.33;11.43;;;;;;;;;;5031113;28;20434;-77
2022/05/02 05:51:36;;;;;;;14.50;11.57;;;;;;;;;;5031665;28;20983;-75
2022/05/02 05:54:09;;;;;;;13.43;11.70;;;;;;;;;;5013519;28;20489;-74
2022/05/02 05:56:45;;;;;;;12.53;11.20;;;;;;;;;;5033055;28;20473;-74
2022/05/02 05:59:17;;;;;;;14.93;11.70;;;;;;;;;;5030066;28;20458;-74
2022/05/02 06:01:50;;;;;;;13.67;11.63;;;;;;;;;;5035392;28;20978;-74
2022/05/02 06:04:18;;;;;;;15.10;11.50;;;;;;;;;;5037035;28;20437;-75
2022/05/02 06:06:47;;;;;;;12.60;11.30;;;;;;;;;;5048555;28;20441;-75
2022/05/02 06:09:15;;;;;;;14.97;12.70;;;;;;;;;;5050490;28;20437;-74
2022/05/02 06:11:46;;;;;;;16.13;12.50;;;;;;;;;;5050528;28;21029;-73
2022/05/02 06:14:14;;;;;;;15.67;13.37;;;;;;;;;;5051389;28;20538;-75
2022/05/02 06:19:26;;;;;;;16.10;13.00;;;;;;;;;;5019554;28;20438;-75
2022/05/02 06:21:55;;;;;;;13.90;11.50;;;;;;;;;;5036247;28;20466;-74
2022/05/02 06:24:26;;;;;;;12.03;10.80;;;;;;;;;;5021611;28;20449;-77
2022/05/02 06:26:54;;;;;;;14.18;12.68;;;;;;;;;;5039712;28;20437;-78
2022/05/02 06:29:22;;;;;;;14.40;12.00;;;;;;;;;;5050194;28;20500;-75
2022/05/02 06:31:52;;;;;;;14.13;12.37;;;;;;;;;;5053762;28;20507;-78
2022/05/02 06:34:23;;;;;;;13.40;12.10;;;;;;;;;;5053854;28;20873;-80
2022/05/02 06:36:56;;;;;;;13.63;11.60;;;;;;;;;;5054756;28;20539;-78
2022/05/02 06:39:30;;;;;;;11.73;10.60;;;;;;;;;;5054186;28;20465;-76
2022/05/02 06:42:05;;;;;;;11.90;10.70;;;;;;;;;;5016361;28;20467;-79
2022/05/02 06:44:37;;;;;;;14.73;13.03;;;;;;;;;;5016331;28;20457;-76
2022/05/02 06:47:10;;;;;;;18.20;12.60;;;;;;;;;;5031554;28;20460;-76
2022/05/02 06:49:41;;;;;;;13.33;11.93;;;;;;;;;;5039926;28;20436;-74
2022/05/02 06:52:11;;;;;;;13.60;12.30;;;;;;;;;;5050700;28;20468;-77
2022/05/02 06:54:44;;;;;;;15.63;11.47;;;;;;;;;;5053352;28;20489;-77
2022/05/02 06:57:17;;;;;;;11.30;10.20;;;;;;;;;;5054275;28;20447;-81
2022/05/02 06:59:52;;;;;;;12.37;11.17;;;;;;;;;;5054417;28;20446;-76
2022/05/02 07:02:37;;;;;;;12.27;11.07;;;;;;;;;;5051525;28;20463;-77
2022/05/02 07:05:06;;;;;;;14.93;12.07;;;;;;;;;;5035919;28;20925;-80
2022/05/02 07:07:48;;;;;;;12.03;10.73;;;;;;;;;;5035866;28;20442;-74
2022/05/02 07:10:22;;;;;;;16.53;11.87;;;;;;;;;;5024608;28;20431;-75
2022/05/02 07:12:54;;;;;;;13.77;10.10;;;;;;;;;;5040871;28;20437;-75
2022/05/02 07:15:24;;;;;;;15.00;10.17;;;;;;;;;;5013998;28;20453;-77
2022/05/02 07:17:58;;;;;;;10.90;9.80;;;;;;;;;;5014955;28;20482;-74
2022/05/02 07:20:29;;;;;;;10.50;9.40;;;;;;;;;;5014184;28;20505;-74
2022/05/02 07:23:04;;;;;;;9.77;8.87;;;;;;;;;;5013900;28;20447;-76
2022/05/02 07:25:33;;;;;;;11.97;10.73;;;;;;;;;;5021826;28;20448;-75
2022/05/02 07:28:05;;;;;;;13.87;12.47;;;;;;;;;;5038641;28;20431;-75
2022/05/02 07:30:32;;;;;;;11.77;10.63;;;;;;;;;;5041136;28;20464;-75
2022/05/02 07:33:03;;;;;;;12.13;10.93;;;;;;;;;;5052766;28;20484;-75
2022/05/02 07:35:31;;;;;;;11.33;9.20;;;;;;;;;;5052593;28;20797;-74
2022/05/02 07:37:59;;;;;;;12.43;11.23;;;;;;;;;;5052963;28;20441;-76
2022/05/02 07:40:26;;;;;;;10.93;9.83;;;;;;;;;;5035687;28;20808;-77
2022/05/02 07:42:56;;;;;;;11.13;10.03;;;;;;;;;;5025132;28;20462;-77
2022/05/02 07:45:26;;;;;;;11.00;9.63;;;;;;;;;;5034635;28;20442;-78
2022/05/02 07:47:55;;;;;;;10.30;9.23;;;;;;;;;;5034956;28;20446;-76
2022/05/02 07:50:22;;;;;;;12.27;10.97;;;;;;;;;;5038359;28;20430;-76
2022/05/02 07:52:51;;;;;;;12.50;11.30;;;;;;;;;;5039862;28;20496;-75
2022/05/02 07:55:21;;;;;;;10.53;9.20;;;;;;;;;;5051792;28;20440;-77
2022/05/02 07:57:49;;;;;;;11.20;10.10;;;;;;;;;;5052265;28;20452;-75
2022/05/02 08:00:18;;;;;;;11.60;9.93;;;;;;;;;;5052887;28;20447;-76
2022/05/02 08:02:45;;;;;;;10.37;9.07;;;;;;;;;;5052861;28;20453;-76
2022/05/02 08:05:12;;;;;;;12.87;10.67;;;;;;;;;;5046166;28;20442;-75
2022/05/02 08:07:40;;;;;;;12.87;10.20;;;;;;;;;;5034494;28;20442;-75
2022/05/02 08:10:14;;;;;;;14.43;10.70;;;;;;;;;;5016995;28;20810;-76
2022/05/02 08:12:43;;;;;;;12.27;9.60;;;;;;;;;;5019709;28;20440;-75
2022/05/02 08:15:13;;;;;;;10.77;8.53;;;;;;;;;;5038187;28;20487;-77
2022/05/02 08:17:55;;;;;;;11.80;9.33;;;;;;;;;;5033166;28;20438;-77
2022/05/02 08:20:28;;;;;;;10.50;9.10;;;;;;;;;;5031170;28;20450;-76
2022/05/02 08:28:30;;;;;;;12.23;10.87;;;;;;;;;;5028551;28;20469;-76
2022/05/02 08:30:58;;;;;;;12.83;10.97;;;;;;;;;;5036342;28;20465;-75
2022/05/02 08:33:27;;;;;;;13.13;10.90;;;;;;;;;;5019189;28;20846;-75
2022/05/02 08:35:59;;;;;;;10.63;9.47;;;;;;;;;;5029668;28;20468;-75
2022/05/02 08:38:42;;;;;;;10.87;9.80;;;;;;;;;;5025369;28;20820;-75
2022/05/02 08:41:20;;;;;;;12.50;11.30;;;;;;;;;;5029413;28;20970;-76
2022/05/02 08:43:57;;;;;;;14.40;11.10;;;;;;;;;;5029979;28;20839;-75
2022/05/02 08:46:39;;;;;;;12.37;11.17;;;;;;;;;;5032592;28;20445;-76
2022/05/02 08:52:19;;;;;;;12.37;11.13;;;;;;;;;;5017080;28;20478;-76
2022/05/02 08:55:01;;;;;;;13.30;11.90;;;;;;;;;;5036318;28;20983;-77
2022/05/02 08:57:41;;;;;;;13.50;12.10;;;;;;;;;;5024082;28;20429;-76
2022/05/02 09:00:09;;;;;;;14.27;11.83;;;;;;;;;;5027013;28;20450;-76
2022/05/02 09:02:51;;;;;;;15.30;12.97;;;;;;;;;;5027584;28;21296;-77
2022/05/02 09:05:34;;;;;;;13.93;12.63;;;;;;;;;;5027179;28;20827;-75
2022/05/02 09:08:16;;;;;;;12.23;10.93;;;;;;;;;;5024066;28;20544;-74
2022/05/02 09:10:59;;;;;;;14.63;11.53;;;;;;;;;;5014993;28;20501;-75
2022/05/02 09:13:39;;;;;;;13.90;12.50;;;;;;;;;;5032009;28;20478;-75
2022/05/02 09:16:21;;;;;;;12.10;10.77;;;;;;;;;;5034092;28;22227;-76
2022/05/02 09:19:03;;;;;;;13.70;12.30;;;;;;;;;;5034717;28;20481;-75
2022/05/02 09:21:40;;;;;;;11.77;9.80;;;;;;;;;;5029634;28;20473;-75
2022/05/02 09:24:19;;;;;;;12.93;11.77;;;;;;;;;;5030391;28;20457;-75
2022/05/02 09:27:01;;;;;;;12.73;11.43;;;;;;;;;;5031053;28;20438;-75
2022/05/02 09:29:44;;;;;;;13.83;12.33;;;;;;;;;;5028607;28;20826;-74
2022/05/02 09:32:18;;;;;;;11.97;10.77;;;;;;;;;;5019552;28;20481;-74
2022/05/02 09:34:47;;;;;;;18.30;12.60;;;;;;;;;;5031514;28;20835;-75
2022/05/02 09:37:18;;;;;;;16.37;14.10;;;;;;;;;;5033328;28;20453;-75
2022/05/02 09:39:48;;;;;;;12.63;10.37;;;;;;;;;;5035983;28;20927;-74
2022/05/02 09:42:28;;;;;;;16.63;14.30;;;;;;;;;;5036912;28;20966;-75
2022/05/02 09:50:34;;;;;;;11.17;10.07;;;;;;;;;;5029567;28;20465;-75
2022/05/02 09:53:04;;;;;;;15.50;11.10;;;;;;;;;;5028697;28;20453;-75
2022/05/02 09:58:32;;;;;;;13.53;11.87;;;;;;;;;;5031399;28;20482;-74
2022/05/02 10:01:10;;;;;;;11.67;10.20;;;;;;;;;;5028362;28;20538;-75
2022/05/02 10:03:38;;;;;;;13.10;11.80;;;;;;;;;;5011312;28;20488;-74
2022/05/02 10:06:06;;;;;;;14.20;12.13;;;;;;;;;;5028624;28;20737;-74
2022/05/02 10:08:39;;;;;;;16.73;11.63;;;;;;;;;;5026556;28;20501;-75
2022/05/02 10:11:08;;;;;;;11.43;10.30;;;;;;;;;;5028483;28;20481;-75
2022/05/02 10:13:39;;;;;;;15.20;12.60;;;;;;;;;;5010494;28;20810;-75
2022/05/02 10:16:14;;;;;;;11.90;10.40;;;;;;;;;;5008031;28;20815;-76
2022/05/02 10:18:48;;;;;;;11.37;10.37;;;;;;;;;;5029569;28;20449;-75
2022/05/02 10:21:25;;;;;;;11.63;10.53;;;;;;;;;;5038966;28;20448;-76
2022/05/02 10:23:59;;;;;;;13.30;9.17;;;;;;;;;;5035704;28;20450;-76
2022/05/02 10:26:31;;;;;;;13.30;10.83;;;;;;;;;;5032379;28;20498;-76
2022/05/02 10:29:13;;;;;;;10.63;8.63;;;;;;;;;;5033184;28;20959;-77
2022/05/02 10:31:43;;;;;;;13.70;12.30;;;;;;;;;;5019448;28;20469;-76
2022/05/02 10:34:11;;;;;;;13.03;9.90;;;;;;;;;;5032405;28;20481;-75
2022/05/02 10:36:39;;;;;;;11.43;10.37;;;;;;;;;;5036534;28;20643;-75
2022/05/02 10:39:16;;;;;;;13.50;11.23;;;;;;;;;;5033888;28;20454;-75
2022/05/02 10:41:46;;;;;;;13.70;10.70;;;;;;;;;;5037877;28;20468;-74
2022/05/02 10:44:16;;;;;;;10.60;9.60;;;;;;;;;;5038698;28;20452;-74
2022/05/02 10:46:45;;;;;;;10.27;9.07;;;;;;;;;;5016852;28;20462;-75
2022/05/02 10:49:18;;;;;;;13.87;10.53;;;;;;;;;;5014954;28;20484;-83
2022/05/02 10:51:51;;;;;;;11.40;9.87;;;;;;;;;;5033783;28;20553;-77
2022/05/02 10:54:27;;;;;;;13.77;11.43;;;;;;;;;;5029701;28;20489;-85
2022/05/02 10:56:57;;;;;;;14.70;11.67;;;;;;;;;;5032370;28;20489;-74
2022/05/02 10:59:25;;;;;;;11.83;10.27;;;;;;;;;;5007699;28;20496;-75
2022/05/02 11:02:07;;;;;;;13.40;11.17;;;;;;;;;;5016583;28;20560;-75
2022/05/02 11:04:45;;;;;;;10.70;9.60;;;;;;;;;;5036098;28;20461;-74
2022/05/02 11:07:19;;;;;;;10.63;9.53;;;;;;;;;;5037995;28;20461;-75
2022/05/02 11:09:55;;;;;;;11.57;10.37;;;;;;;;;;5046723;28;20532;-75
2022/05/02 11:12:23;;;;;;;11.13;10.00;;;;;;;;;;5031702;28;20465;-76
2022/05/02 11:14:56;;;;;;;12.27;10.63;;;;;;;;;;5014780;28;20813;-75
2022/05/02 11:17:27;;;;;;;11.83;10.63;;;;;;;;;;5029760;28;20458;-77
2022/05/02 11:22:44;;;;;;;12.00;8.63;;;;;;;;;;5033797;28;20464;-76
2022/05/02 11:25:14;;;;;;;12.50;11.30;;;;;;;;;;5038514;28;20953;-77
2022/05/02 11:27:48;;;;;;;11.80;10.70;;;;;;;;;;5037915;28;20449;-77
2022/05/02 11:30:18;;;;;;;12.80;11.43;;;;;;;;;;5032950;28;20454;-76
2022/05/02 11:32:50;;;;;;;12.73;10.80;;;;;;;;;;5032227;28;20482;-77
2022/05/02 11:35:24;;;;;;;10.00;8.90;;;;;;;;;;5030368;28;20486;-76
2022/05/02 11:37:55;;;;;;;10.90;8.10;;;;;;;;;;5030905;28;21272;-77
2022/05/02 11:40:26;;;;;;;10.00;8.77;;;;;;;;;;5034986;28;20795;-77
2022/05/02 11:42:54;;;;;;;10.90;9.53;;;;;;;;;;5033263;28;20449;-76
2022/05/02 11:45:25;;;;;;;12.90;10.03;;;;;;;;;;5033850;28;20462;-76
2022/05/02 11:47:54;;;;;;;9.87;8.87;;;;;;;;;;5039020;28;20431;-76
2022/05/02 11:50:25;;;;;;;13.23;10.40;;;;;;;;;;5020590;28;20454;-76
2022/05/02 11:52:53;;;;;;;11.43;10.30;;;;;;;;;;5032740;28;20782;-77
2022/05/02 11:55:21;;;;;;;12.67;9.20;;;;;;;;;;5030884;28;20477;-76
2022/05/02 11:57:50;;;;;;;11.50;9.90;;;;;;;;;;5013594;28;20465;-77
2022/05/02 12:00:18;;;;;;;11.83;10.70;;;;;;;;;;5031825;28;20784;-77
2022/05/02 12:02:51;;;;;;;8.23;7.37;;;;;;;;;;5027629;28;20458;-77
2022/05/02 12:05:23;;;;;;;11.57;10.37;;;;;;;;;;5015445;28;20449;-77
2022/05/02 12:07:53;;;;;;;10.17;9.10;;;;;;;;;;5030697;28;20461;-77
2022/05/02 12:10:20;;;;;;;11.87;10.67;;;;;;;;;;5037166;28;22348;-76
2022/05/02 12:12:50;;;;;;;11.77;8.90;;;;;;;;;;5034161;28;20967;-76
2022/05/02 12:15:18;;;;;;;9.33;8.20;;;;;;;;;;5030220;28;20519;-76
2022/05/02 12:17:53;;;;;;;10.00;9.00;;;;;;;;;;5014337;28;20446;-76
2022/05/02 12:20:24;;;;;;;11.77;10.57;;;;;;;;;;5013487;28;20853;-76
2022/05/02 12:22:56;;;;;;;12.27;10.93;;;;;;;;;;5032603;28;20466;-75
2022/05/02 12:25:24;;;;;;;10.43;9.03;;;;;;;;;;5029190;28;20808;-76
2022/05/02 12:27:52;;;;;;;9.57;8.67;;;;;;;;;;5033069;28;20462;-76
2022/05/02 12:30:19;;;;;;;9.30;8.40;;;;;;;;;;5033865;28;20453;-75
2022/05/02 12:32:47;;;;;;;10.20;9.03;;;;;;;;;;5037044;28;20465;-76
2022/05/02 12:35:15;;;;;;;12.27;11.07;;;;;;;;;;5039677;28;20476;-76
2022/05/02 12:37:46;;;;;;;10.80;9.70;;;;;;;;;;5051153;28;20445;-76
2022/05/02 12:40:18;;;;;;;11.00;9.60;;;;;;;;;;5051568;28;20447;-77
2022/05/02 12:42:47;;;;;;;9.83;8.80;;;;;;;;;;5029057;28;20592;-76
2022/05/02 12:45:16;;;;;;;11.03;7.50;;;;;;;;;;5025309;28;20443;-76
2022/05/02 12:47:47;;;;;;;10.10;9.10;;;;;;;;;;5015385;28;20450;-75
2022/05/02 12:50:16;;;;;;;10.40;9.20;;;;;;;;;;5032809;28;21047;-75
2022/05/02 12:52:45;;;;;;;8.57;7.67;;;;;;;;;;5033786;28;20442;-76
2022/05/02 12:55:13;;;;;;;11.57;10.47;;;;;;;;;;5035419;28;20491;-75
2022/05/02 13:00:31;;;;;;;10.20;9.20;;;;;;;;;;5015146;28;20821;-75
2022/05/02 13:03:01;;;;;;;9.13;8.33;;;;;;;;;;5031357;28;20541;-76
2022/05/02 13:05:31;;;;;;;12.70;9.07;;;;;;;;;;5012905;28;20454;-77
2022/05/02 13:07:59;;;;;;;11.13;9.73;;;;;;;;;;5031366;28;20597;-75
2022/05/02 13:10:27;;;;;;;10.47;8.43;;;;;;;;;;5031365;28;20454;-76
2022/05/02 13:12:57;;;;;;;12.00;9.50;;;;;;;;;;5032523;28;20458;-76
2022/05/02 13:15:24;;;;;;;10.93;8.20;;;;;;;;;;5012147;28;20544;-75
2022/05/02 13:17:53;;;;;;;10.90;8.90;;;;;;;;;;5033566;28;20440;-75
2022/05/02 13:20:20;;;;;;;11.63;9.87;;;;;;;;;;5035888;28;20453;-76
2022/05/02 13:23:03;;;;;;;10.60;9.57;;;;;;;;;;5029610;28;20458;-74
2022/05/02 13:25:45;;;;;;;12.57;10.47;;;;;;;;;;5011452;28;20465;-77
2022/05/02 13:28:17;;;;;;;11.20;8.33;;;;;;;;;;5030145;28;20453;-78
2022/05/02 13:30:47;;;;;;;12.63;10.27;;;;;;;;;;5029257;28;21012;-76
2022/05/02 13:33:14;;;;;;;9.43;8.27;;;;;;;;;;5025865;28;20552;-75
2022/05/02 13:35:42;;;;;;;12.43;11.20;;;;;;;;;;5032607;28;20489;-75
2022/05/02 13:38:10;;;;;;;10.23;9.23;;;;;;;;;;5032873;28;20529;-74
2022/05/02 13:40:43;;;;;;;8.40;7.50;;;;;;;;;;5019080;28;20469;-74
2022/05/02 13:43:13;;;;;;;8.97;7.90;;;;;;;;;;5036026;28;20438;-75
2022/05/02 13:45:47;;;;;;;13.73;11.13;;;;;;;;;;5027208;28;20508;-76
2022/05/02 13:48:15;;;;;;;8.80;7.90;;;;;;;;;;5030697;28;20454;-76
2022/05/02 13:50:46;;;;;;;10.87;9.60;;;;;;;;;;5014324;28;20469;-76
2022/05/02 13:53:22;;;;;;;9.50;8.40;;;;;;;;;;5030358;28;20462;-76
2022/05/02 13:55:55;;;;;;;11.50;10.30;;;;;;;;;;5032191;28;20523;-76
2022/05/02 13:58:25;;;;;;;11.60;10.50;;;;;;;;;;5033338;28;20454;-76
2022/05/02 14:01:26;;;;;;;9.20;8.30;;;;;;;;;;5038681;28;20457;-78
2022/05/02 14:03:59;;;;;;;9.53;8.63;;;;;;;;;;5042040;28;20450;-78
2022/05/02 14:06:30;;;;;;;13.07;9.67;;;;;;;;;;5039533;28;20819;-79
2022/05/02 14:08:59;;;;;;;13.00;11.50;;;;;;;;;;5034905;28;20812;-81
2022/05/02 14:11:29;;;;;;;15.10;10.30;;;;;;;;;;5037224;28;20548;-78
2022/05/02 14:14:06;;;;;;;11.83;9.17;;;;;;;;;;5036620;28;20460;-76
2022/05/02 14:16:35;;;;;;;9.50;8.27;;;;;;;;;;5019276;28;20518;-79
2022/05/02 14:19:03;;;;;;;10.47;9.40;;;;;;;;;;5034228;28;20454;-78
2022/05/02 14:21:37;;;;;;;11.07;9.97;;;;;;;;;;5036747;28;20464;-80
2022/05/02 14:24:04;;;;;;;9.43;8.53;;;;;;;;;;5033386;28;20537;-79
2022/05/02 14:26:32;;;;;;;9.53;8.27;;;;;;;;;;5036457;28;20958;-79
2022/05/02 14:29:00;;;;;;;8.07;7.33;;;;;;;;;;5038261;28;20454;-79
2022/05/02 14:31:36;;;;;;;11.70;10.60;;;;;;;;;;5031905;28;20516;-79
2022/05/02 14:34:07;;;;;;;11.10;8.10;;;;;;;;;;5011928;28;20462;-82
2022/05/02 14:36:36;;;;;;;7.43;6.60;;;;;;;;;;5033934;28;20901;-77
2022/05/02 14:39:04;;;;;;;11.80;8.70;;;;;;;;;;5032304;28;20454;-77
2022/05/02 14:41:33;;;;;;;8.77;7.87;;;;;;;;;;5016966;28;20469;-77
2022/05/02 14:44:00;;;;;;;13.50;8.87;;;;;;;;;;5037217;28;20465;-77
2022/05/02 14:46:28;;;;;;;8.70;7.80;;;;;;;;;;5038034;28;20454;-78
2022/05/02 14:48:57;;;;;;;10.50;8.10;;;;;;;;;;5032668;28;20456;-77
2022/05/02 14:51:28;;;;;;;9.80;8.80;;;;;;;;;;5033503;28;20476;-78
2022/05/02 14:53:57;;;;;;;8.97;8.07;;;;;;;;;;5032993;28;20446;-76
2022/05/02 14:56:26;;;;;;;10.53;9.53;;;;;;;;;;5033041;28;20490;-77
2022/05/02 14:58:54;;;;;;;8.60;7.80;;;;;;;;;;5033851;28;20458;-77
2022/05/02 15:01:25;;;;;;;11.13;8.00;;;;;;;;;;5016735;28;20478;-75
2022/05/02 15:03:55;;;;;;;8.40;7.50;;;;;;;;;;5034648;28;20454;-75
2022/05/02 15:06:26;;;;;;;7.10;6.13;;;;;;;;;;5017272;28;20454;-75
2022/05/02 15:09:08;;;;;;;7.90;7.20;;;;;;;;;;5038524;28;20918;-74
2022/05/02 15:11:38;;;;;;;11.63;7.40;;;;;;;;;;5042515;28;20890;-76
2022/05/02 15:14:17;;;;;;;7.53;6.80;;;;;;;;;;5032193;28;20794;-73
2022/05/02 15:16:49;;;;;;;8.00;7.27;;;;;;;;;;5033355;28;20520;-74
2022/05/02 15:22:13;;;;;;;8.00;7.00;;;;;;;;;;5017554;28;20469;-75
2022/05/02 15:24:51;;;;;;;8.67;6.67;;;;;;;;;;5033215;28;20450;-75
2022/05/02 15:38:23;;;;;;;6.43;5.60;;;;;;;;;;5016470;28;20434;-75